ilmateenistus.ee keskkonnaagentuur.ee
EETN Tallinna lennuväli
FTEO31 EETN 201700
TAF EETN 201700Z 2018/2118 VRB02KT CAVOK BECMG 2108/2110 29008KT=

METAR EETN 202050Z 25002KT CAVOK 11/05 Q1027 NOSIG=
Tallinna lennuväli
EEKA Kärdla lennuväli
METAR EEKA 202050Z NIL=
Kärdla lennuväli
EEKE Kuressaare lennuväli
METAR EEKE 202050Z AUTO 34004KT 9999NDV NSC 11/07 Q1028=
Kuressaare lennuväli
EEPU Pärnu lennuväli
METAR EEPU 202050Z NIL=
Pärnu lennuväli
EETU Tartu lennuväli
FCEO32 EETN 202000
TAF EETU 202000Z 2021/2103 VRB02KT CAVOK PROB40 TEMPO 2023/2103 2000
    MIFG BR=

METAR EETU 202050Z 26002KT CAVOK 09/03 Q1027=
Tartu lennuväli
EEEI Ämari lennuväli
METAR EEEI 202050Z AUTO 13001KT CAVOK 09/06 Q1027=
Ämari lennuväli